sensor_id;sensor_type;location;lat;lon;timestamp;pressure;altitude;pressure_sealevel;temperature;humidity
19112;BME280;9688;51.906;8.376;2023-02-15T00:02:10;102115.19;;;4.64;87.19
19112;BME280;9688;51.906;8.376;2023-02-15T00:04:57;102114.31;;;4.60;86.42
19112;BME280;9688;51.906;8.376;2023-02-15T00:07:42;102111.66;;;4.59;86.65
19112;BME280;9688;51.906;8.376;2023-02-15T00:10:30;102102.03;;;4.56;87.37
19112;BME280;9688;51.906;8.376;2023-02-15T00:13:15;102104.63;;;4.56;86.33
19112;BME280;9688;51.906;8.376;2023-02-15T00:16:02;102102.03;;;4.55;86.46
19112;BME280;9688;51.906;8.376;2023-02-15T00:18:51;102101.06;;;4.48;87.38
19112;BME280;9688;51.906;8.376;2023-02-15T00:21:38;102101.03;;;4.45;86.49
19112;BME280;9688;51.906;8.376;2023-02-15T00:24:24;102094.91;;;4.43;86.57
19112;BME280;9688;51.906;8.376;2023-02-15T00:27:10;102094.88;;;4.40;86.77
19112;BME280;9688;51.906;8.376;2023-02-15T00:29:56;102091.34;;;4.38;87.14
19112;BME280;9688;51.906;8.376;2023-02-15T00:32:42;102086.97;;;4.37;86.52
19112;BME280;9688;51.906;8.376;2023-02-15T00:35:28;102088.72;;;4.38;87.31
19112;BME280;9688;51.906;8.376;2023-02-15T00:38:14;102088.75;;;4.39;86.22
19112;BME280;9688;51.906;8.376;2023-02-15T00:41:02;102080.88;;;4.38;87.21
19112;BME280;9688;51.906;8.376;2023-02-15T00:43:49;102073.03;;;4.39;86.45
19112;BME280;9688;51.906;8.376;2023-02-15T00:46:35;102078.31;;;4.41;87.20
19112;BME280;9688;51.906;8.376;2023-02-15T00:49:21;102084.38;;;4.37;86.81
19112;BME280;9688;51.906;8.376;2023-02-15T00:52:07;102083.50;;;4.36;87.28
19112;BME280;9688;51.906;8.376;2023-02-15T00:54:53;102079.13;;;4.35;87.36
19112;BME280;9688;51.906;8.376;2023-02-15T00:57:38;102078.22;;;4.33;86.64
19112;BME280;9688;51.906;8.376;2023-02-15T01:00:26;102082.59;;;4.33;86.86
19112;BME280;9688;51.906;8.376;2023-02-15T01:03:12;102081.66;;;4.28;87.11
19112;BME280;9688;51.906;8.376;2023-02-15T01:05:59;102088.59;;;4.25;86.67
19112;BME280;9688;51.906;8.376;2023-02-15T01:08:45;102078.97;;;4.23;87.05
19112;BME280;9688;51.906;8.376;2023-02-15T01:11:32;102082.41;;;4.17;87.33
19112;BME280;9688;51.906;8.376;2023-02-15T01:14:17;102077.09;;;4.13;86.47
19112;BME280;9688;51.906;8.376;2023-02-15T01:17:05;102069.19;;;4.07;87.49
19112;BME280;9688;51.906;8.376;2023-02-15T01:19:51;102059.56;;;4.04;87.44
19112;BME280;9688;51.906;8.376;2023-02-15T01:22:37;102056.09;;;4.05;87.44
19112;BME280;9688;51.906;8.376;2023-02-15T01:25:24;102058.69;;;4.02;87.60
19112;BME280;9688;51.906;8.376;2023-02-15T01:28:10;102058.69;;;4.03;87.67
19112;BME280;9688;51.906;8.376;2023-02-15T01:30:55;102053.47;;;4.03;86.95
19112;BME280;9688;51.906;8.376;2023-02-15T01:33:43;102044.75;;;4.03;86.92
19112;BME280;9688;51.906;8.376;2023-02-15T01:36:28;102051.72;;;4.04;87.46
19112;BME280;9688;51.906;8.376;2023-02-15T01:39:15;102047.34;;;4.05;86.78
19112;BME280;9688;51.906;8.376;2023-02-15T01:42:00;102049.09;;;4.04;87.59
19112;BME280;9688;51.906;8.376;2023-02-15T01:44:53;102041.25;;;4.02;87.00
19112;BME280;9688;51.906;8.376;2023-02-15T01:47:43;102035.06;;;3.99;86.64
19112;BME280;9688;51.906;8.376;2023-02-15T01:50:33;102041.19;;;3.98;86.54
19112;BME280;9688;51.906;8.376;2023-02-15T01:53:23;102042.94;;;3.99;86.83
19112;BME280;9688;51.906;8.376;2023-02-15T01:56:13;102047.28;;;3.98;87.52
19112;BME280;9688;51.906;8.376;2023-02-15T01:59:02;102041.19;;;3.98;86.90
19112;BME280;9688;51.906;8.376;2023-02-15T02:01:51;102046.41;;;3.96;86.75
19112;BME280;9688;51.906;8.376;2023-02-15T02:04:41;102036.78;;;3.95;86.67
19112;BME280;9688;51.906;8.376;2023-02-15T02:07:33;102035.91;;;3.95;87.26
19112;BME280;9688;51.906;8.376;2023-02-15T02:10:22;102039.34;;;3.89;86.86
19112;BME280;9688;51.906;8.376;2023-02-15T02:13:08;102027.06;;;3.85;87.08
19112;BME280;9688;51.906;8.376;2023-02-15T02:15:58;102025.28;;;3.81;86.85
19112;BME280;9688;51.906;8.376;2023-02-15T02:18:58;102029.63;;;3.77;86.66
19112;BME280;9688;51.906;8.376;2023-02-15T02:22:15;102022.59;;;3.76;87.36
19112;BME280;9688;51.906;8.376;2023-02-15T02:28:41;102012.97;;;3.72;86.42
19112;BME280;9688;51.906;8.376;2023-02-15T02:31:43;102020.88;;;3.75;86.66
19112;BME280;9688;51.906;8.376;2023-02-15T02:34:36;102013.94;;;3.77;86.96
19112;BME280;9688;51.906;8.376;2023-02-15T02:37:32;102004.28;;;3.73;87.29
19112;BME280;9688;51.906;8.376;2023-02-15T02:40:28;102011.19;;;3.67;87.61
19112;BME280;9688;51.906;8.376;2023-02-15T02:43:20;102000.69;;;3.64;87.10
19112;BME280;9688;51.906;8.376;2023-02-15T02:46:11;101998.91;;;3.61;87.62
19112;BME280;9688;51.906;8.376;2023-02-15T02:49:00;101991.00;;;3.56;87.75
19112;BME280;9688;51.906;8.376;2023-02-15T02:51:58;101984.78;;;3.48;87.40
19112;BME280;9688;51.906;8.376;2023-02-15T02:54:44;101985.63;;;3.46;87.31
19112;BME280;9688;51.906;8.376;2023-02-15T02:57:31;101988.25;;;3.44;88.00
19112;BME280;9688;51.906;8.376;2023-02-15T03:00:19;101980.34;;;3.43;87.35
19112;BME280;9688;51.906;8.376;2023-02-15T03:03:09;101981.22;;;3.42;87.80
19112;BME280;9688;51.906;8.376;2023-02-15T03:06:00;101982.97;;;3.43;87.80
19112;BME280;9688;51.906;8.376;2023-02-15T03:08:52;101989.94;;;3.42;87.14
19112;BME280;9688;51.906;8.376;2023-02-15T03:11:43;101986.41;;;3.40;88.09
19112;BME280;9688;51.906;8.376;2023-02-15T03:14:30;101988.16;;;3.38;88.38
19112;BME280;9688;51.906;8.376;2023-02-15T03:17:17;101982.03;;;3.36;88.07
19112;BME280;9688;51.906;8.376;2023-02-15T03:20:07;101982.88;;;3.35;87.29
19112;BME280;9688;51.906;8.376;2023-02-15T03:22:57;101972.41;;;3.35;87.68
19112;BME280;9688;51.906;8.376;2023-02-15T03:25:51;101971.53;;;3.33;87.78
19112;BME280;9688;51.906;8.376;2023-02-15T03:28:42;101965.34;;;3.26;88.27
19112;BME280;9688;51.906;8.376;2023-02-15T03:31:32;101973.97;;;3.19;88.74
19112;BME280;9688;51.906;8.376;2023-02-15T03:34:20;101976.56;;;3.19;88.65
19112;BME280;9688;51.906;8.376;2023-02-15T03:37:11;101975.66;;;3.19;88.87
19112;BME280;9688;51.906;8.376;2023-02-15T03:40:09;101975.72;;;3.20;88.47
19112;BME280;9688;51.906;8.376;2023-02-15T03:43:15;101977.50;;;3.23;87.74
19112;BME280;9688;51.906;8.376;2023-02-15T03:46:06;101966.16;;;3.24;88.21
19112;BME280;9688;51.906;8.376;2023-02-15T03:48:57;101962.69;;;3.23;88.12
19112;BME280;9688;51.906;8.376;2023-02-15T03:51:48;101961.84;;;3.24;88.25
19112;BME280;9688;51.906;8.376;2023-02-15T03:54:36;101959.16;;;3.20;88.18
19112;BME280;9688;51.906;8.376;2023-02-15T03:57:29;101952.16;;;3.19;88.09
19112;BME280;9688;51.906;8.376;2023-02-15T04:00:36;101951.25;;;3.15;87.68
19112;BME280;9688;51.906;8.376;2023-02-15T04:03:43;101958.19;;;3.11;88.07
19112;BME280;9688;51.906;8.376;2023-02-15T04:06:30;101952.91;;;3.10;87.38
19112;BME280;9688;51.906;8.376;2023-02-15T04:09:16;101952.91;;;3.08;87.72
19112;BME280;9688;51.906;8.376;2023-02-15T04:12:20;101957.19;;;3.03;88.01
19112;BME280;9688;51.906;8.376;2023-02-15T04:15:08;101958.88;;;3.00;88.05
19112;BME280;9688;51.906;8.376;2023-02-15T04:18:24;101951.00;;;2.97;88.13
19112;BME280;9688;51.906;8.376;2023-02-15T04:21:29;101948.38;;;2.95;87.70
19112;BME280;9688;51.906;8.376;2023-02-15T04:24:32;101950.09;;;2.95;87.63
19112;BME280;9688;51.906;8.376;2023-02-15T04:27:36;101948.28;;;2.90;88.51
19112;BME280;9688;51.906;8.376;2023-02-15T04:30:23;101943.94;;;2.89;88.05
19112;BME280;9688;51.906;8.376;2023-02-15T04:33:09;101940.44;;;2.89;88.17
19112;BME280;9688;51.906;8.376;2023-02-15T04:35:57;101942.06;;;2.82;88.27
19112;BME280;9688;51.906;8.376;2023-02-15T04:38:42;101941.16;;;2.77;88.08
19112;BME280;9688;51.906;8.376;2023-02-15T04:41:28;101934.16;;;2.75;88.50
19112;BME280;9688;51.906;8.376;2023-02-15T04:44:14;101927.16;;;2.74;88.48
19112;BME280;9688;51.906;8.376;2023-02-15T04:46:59;101932.38;;;2.72;88.82
19112;BME280;9688;51.906;8.376;2023-02-15T04:49:45;101930.59;;;2.70;88.35
19112;BME280;9688;51.906;8.376;2023-02-15T04:52:32;101930.56;;;2.68;88.64
19112;BME280;9688;51.906;8.376;2023-02-15T04:55:17;101922.69;;;2.65;88.75
19112;BME280;9688;51.906;8.376;2023-02-15T04:58:03;101933.97;;;2.64;88.89
19112;BME280;9688;51.906;8.376;2023-02-15T05:00:49;101928.75;;;2.64;88.92
19112;BME280;9688;51.906;8.376;2023-02-15T05:03:35;101921.72;;;2.60;88.78
19112;BME280;9688;51.906;8.376;2023-02-15T05:06:21;101930.38;;;2.57;89.40
19112;BME280;9688;51.906;8.376;2023-02-15T05:09:12;101927.78;;;2.57;89.11
19112;BME280;9688;51.906;8.376;2023-02-15T05:11:58;101937.38;;;2.58;89.26
19112;BME280;9688;51.906;8.376;2023-02-15T05:14:43;101927.81;;;2.59;89.17
19112;BME280;9688;51.906;8.376;2023-02-15T05:17:29;101924.31;;;2.58;88.67
19112;BME280;9688;51.906;8.376;2023-02-15T05:20:17;101918.16;;;2.55;88.68
19112;BME280;9688;51.906;8.376;2023-02-15T05:23:03;101923.31;;;2.50;89.07
19112;BME280;9688;51.906;8.376;2023-02-15T05:25:50;101922.41;;;2.48;89.43
19112;BME280;9688;51.906;8.376;2023-02-15T05:28:53;101922.38;;;2.46;89.16
19112;BME280;9688;51.906;8.376;2023-02-15T05:31:39;101920.69;;;2.47;89.48
19112;BME280;9688;51.906;8.376;2023-02-15T05:34:25;101917.25;;;2.50;89.05
19112;BME280;9688;51.906;8.376;2023-02-15T05:37:11;101919.84;;;2.50;89.16
19112;BME280;9688;51.906;8.376;2023-02-15T05:39:56;101911.94;;;2.46;89.00
19112;BME280;9688;51.906;8.376;2023-02-15T05:42:43;101918.03;;;2.45;89.54
19112;BME280;9688;51.906;8.376;2023-02-15T05:45:29;101911.94;;;2.45;89.70
19112;BME280;9688;51.906;8.376;2023-02-15T05:48:16;101904.97;;;2.44;89.40
19112;BME280;9688;51.906;8.376;2023-02-15T05:51:04;101902.31;;;2.42;89.60
19112;BME280;9688;51.906;8.376;2023-02-15T05:53:50;101904.88;;;2.39;89.39
19112;BME280;9688;51.906;8.376;2023-02-15T05:56:35;101910.03;;;2.35;89.53
19112;BME280;9688;51.906;8.376;2023-02-15T05:59:23;101894.31;;;2.30;89.51
19112;BME280;9688;51.906;8.376;2023-02-15T06:02:08;101904.66;;;2.26;90.05
19112;BME280;9688;51.906;8.376;2023-02-15T06:04:54;101901.97;;;2.21;90.13
19112;BME280;9688;51.906;8.376;2023-02-15T06:07:43;101900.22;;;2.20;89.95
19112;BME280;9688;51.906;8.376;2023-02-15T06:10:28;101904.56;;;2.19;89.43
19112;BME280;9688;51.906;8.376;2023-02-15T06:13:18;101902.78;;;2.17;89.78
19112;BME280;9688;51.906;8.376;2023-02-15T06:16:05;101907.13;;;2.16;90.20
19112;BME280;9688;51.906;8.376;2023-02-15T06:18:51;101906.28;;;2.17;90.00
19112;BME280;9688;51.906;8.376;2023-02-15T06:21:37;101908.84;;;2.16;90.34
19112;BME280;9688;51.906;8.376;2023-02-15T06:24:22;101912.31;;;2.15;89.98
19112;BME280;9688;51.906;8.376;2023-02-15T06:27:08;101900.13;;;2.15;90.19
19112;BME280;9688;51.906;8.376;2023-02-15T06:29:54;101912.25;;;2.13;89.96
19112;BME280;9688;51.906;8.376;2023-02-15T06:32:41;101905.31;;;2.11;90.16
19112;BME280;9688;51.906;8.376;2023-02-15T06:35:30;101904.34;;;2.07;90.29
19112;BME280;9688;51.906;8.376;2023-02-15T06:38:16;101906.06;;;2.05;90.29
19112;BME280;9688;51.906;8.376;2023-02-15T06:41:02;101907.81;;;2.06;90.91
19112;BME280;9688;51.906;8.376;2023-02-15T06:43:49;101909.50;;;2.04;90.41
19112;BME280;9688;51.906;8.376;2023-02-15T06:46:37;101910.38;;;2.05;90.46
19112;BME280;9688;51.906;8.376;2023-02-15T06:49:25;101911.28;;;2.05;90.26
19112;BME280;9688;51.906;8.376;2023-02-15T06:52:11;101913.03;;;2.08;90.34
19112;BME280;9688;51.906;8.376;2023-02-15T06:54:59;101910.44;;;2.08;90.44
19112;BME280;9688;51.906;8.376;2023-02-15T06:57:46;101909.56;;;2.07;90.79
19112;BME280;9688;51.906;8.376;2023-02-15T07:00:34;101904.38;;;2.09;90.74
19112;BME280;9688;51.906;8.376;2023-02-15T07:03:20;101896.63;;;2.13;90.16
19112;BME280;9688;51.906;8.376;2023-02-15T07:06:08;101894.91;;;2.15;90.52
19112;BME280;9688;51.906;8.376;2023-02-15T07:08:56;101899.31;;;2.18;90.70
19112;BME280;9688;51.906;8.376;2023-02-15T07:11:43;101903.66;;;2.19;90.07
19112;BME280;9688;51.906;8.376;2023-02-15T07:14:47;101901.06;;;2.19;90.60
19112;BME280;9688;51.906;8.376;2023-02-15T07:17:33;101905.53;;;2.26;90.60
19112;BME280;9688;51.906;8.376;2023-02-15T07:20:20;101916.97;;;2.34;90.05
19112;BME280;9688;51.906;8.376;2023-02-15T07:23:09;101913.59;;;2.40;89.78
19112;BME280;9688;51.906;8.376;2023-02-15T07:25:57;101916.28;;;2.46;89.90
19112;BME280;9688;51.906;8.376;2023-02-15T07:28:44;101913.75;;;2.51;89.53
19112;BME280;9688;51.906;8.376;2023-02-15T07:31:30;101905.16;;;2.56;89.76
19112;BME280;9688;51.906;8.376;2023-02-15T07:34:16;101902.66;;;2.64;89.47
19112;BME280;9688;51.906;8.376;2023-02-15T07:37:03;101900.09;;;2.67;89.34
19112;BME280;9688;51.906;8.376;2023-02-15T07:39:53;101896.66;;;2.71;89.44
19112;BME280;9688;51.906;8.376;2023-02-15T07:42:42;101891.50;;;2.76;90.06
19112;BME280;9688;51.906;8.376;2023-02-15T07:45:29;101896.81;;;2.82;89.63
19112;BME280;9688;51.906;8.376;2023-02-15T07:48:15;101896.84;;;2.85;89.11
19112;BME280;9688;51.906;8.376;2023-02-15T07:51:03;101892.56;;;2.90;89.41
19112;BME280;9688;51.906;8.376;2023-02-15T07:53:49;101889.16;;;2.96;89.10
19112;BME280;9688;51.906;8.376;2023-02-15T07:56:37;101890.97;;;3.00;88.63
19112;BME280;9688;51.906;8.376;2023-02-15T07:59:23;101890.22;;;3.08;89.39
19112;BME280;9688;51.906;8.376;2023-02-15T08:02:10;101891.19;;;3.17;89.27
19112;BME280;9688;51.906;8.376;2023-02-15T08:04:56;101880.84;;;3.26;89.22
19112;BME280;9688;51.906;8.376;2023-02-15T08:07:42;101877.47;;;3.34;88.92
19112;BME280;9688;51.906;8.376;2023-02-15T08:10:28;101874.97;;;3.45;87.73
19112;BME280;9688;51.906;8.376;2023-02-15T08:13:29;101880.19;;;3.45;88.39
19112;BME280;9688;51.906;8.376;2023-02-15T08:16:15;101867.19;;;3.50;87.40
19112;BME280;9688;51.906;8.376;2023-02-15T08:19:03;101862.00;;;3.56;88.16
19112;BME280;9688;51.906;8.376;2023-02-15T08:21:50;101858.63;;;3.65;87.41
19112;BME280;9688;51.906;8.376;2023-02-15T08:24:37;101863.94;;;3.74;87.44
19112;BME280;9688;51.906;8.376;2023-02-15T08:27:23;101849.19;;;3.80;87.20
19112;BME280;9688;51.906;8.376;2023-02-15T08:30:14;101856.22;;;3.88;87.74
19112;BME280;9688;51.906;8.376;2023-02-15T08:33:01;101853.69;;;3.97;87.41
19112;BME280;9688;51.906;8.376;2023-02-15T08:35:47;101856.38;;;4.06;86.59
19112;BME280;9688;51.906;8.376;2023-02-15T08:38:34;101856.44;;;4.15;86.91
19112;BME280;9688;51.906;8.376;2023-02-15T08:41:21;101849.53;;;4.23;86.34
19112;BME280;9688;51.906;8.376;2023-02-15T08:44:08;101841.75;;;4.33;86.71
19112;BME280;9688;51.906;8.376;2023-02-15T08:46:57;101838.31;;;4.41;86.52
19112;BME280;9688;51.906;8.376;2023-02-15T08:49:48;101840.13;;;4.52;86.27
19112;BME280;9688;51.906;8.376;2023-02-15T08:52:36;101838.41;;;4.60;84.87
19112;BME280;9688;51.906;8.376;2023-02-15T08:55:22;101841.97;;;4.68;85.06
19112;BME280;9688;51.906;8.376;2023-02-15T08:58:07;101847.28;;;4.77;84.23
19112;BME280;9688;51.906;8.376;2023-02-15T09:00:53;101841.19;;;4.87;84.60
19112;BME280;9688;51.906;8.376;2023-02-15T09:03:43;101829.88;;;4.98;83.78
19112;BME280;9688;51.906;8.376;2023-02-15T09:06:29;101835.16;;;5.05;83.59
19112;BME280;9688;51.906;8.376;2023-02-15T09:09:16;101831.69;;;5.12;83.99
19112;BME280;9688;51.906;8.376;2023-02-15T09:12:02;101834.34;;;5.22;83.21
19112;BME280;9688;51.906;8.376;2023-02-15T09:14:48;101841.41;;;5.38;83.62
19112;BME280;9688;51.906;8.376;2023-02-15T09:17:35;101828.31;;;5.49;82.63
19112;BME280;9688;51.906;8.376;2023-02-15T09:20:22;101822.19;;;5.59;82.84
19112;BME280;9688;51.906;8.376;2023-02-15T09:23:09;101816.97;;;5.70;82.68
19112;BME280;9688;51.906;8.376;2023-02-15T09:25:56;101818.72;;;5.86;81.64
19112;BME280;9688;51.906;8.376;2023-02-15T09:28:44;101804.78;;;5.99;81.86
19112;BME280;9688;51.906;8.376;2023-02-15T09:31:37;101810.91;;;6.15;81.72
19112;BME280;9688;51.906;8.376;2023-02-15T09:34:25;101821.34;;;6.34;81.38
19112;BME280;9688;51.906;8.376;2023-02-15T09:37:13;101816.97;;;6.46;80.75
19112;BME280;9688;51.906;8.376;2023-02-15T09:39:58;101810.78;;;6.61;79.91
19112;BME280;9688;51.906;8.376;2023-02-15T09:43:02;101810.75;;;6.70;80.17
19112;BME280;9688;51.906;8.376;2023-02-15T09:46:19;101810.75;;;6.75;79.94
19112;BME280;9688;51.906;8.376;2023-02-15T09:49:14;101807.19;;;6.91;79.58
19112;BME280;9688;51.906;8.376;2023-02-15T09:52:14;101813.28;;;7.04;78.84
19112;BME280;9688;51.906;8.376;2023-02-15T09:55:14;101814.94;;;7.21;78.69
19112;BME280;9688;51.906;8.376;2023-02-15T09:58:09;101806.97;;;7.33;78.60
19112;BME280;9688;51.906;8.376;2023-02-15T10:01:01;101811.25;;;7.48;78.19
19112;BME280;9688;51.906;8.376;2023-02-15T10:04:08;101814.69;;;7.60;77.33
19112;BME280;9688;51.906;8.376;2023-02-15T10:07:05;101810.22;;;7.73;76.99
19112;BME280;9688;51.906;8.376;2023-02-15T10:10:12;101814.50;;;7.85;76.68
19112;BME280;9688;51.906;8.376;2023-02-15T10:13:15;101808.22;;;8.00;76.11
19112;BME280;9688;51.906;8.376;2023-02-15T10:16:13;101800.25;;;8.12;75.90
19112;BME280;9688;51.906;8.376;2023-02-15T10:19:08;101802.72;;;8.27;75.92
19112;BME280;9688;51.906;8.376;2023-02-15T10:22:05;101804.34;;;8.42;75.36
19112;BME280;9688;51.906;8.376;2023-02-15T10:25:07;101802.47;;;8.55;74.52
19112;BME280;9688;51.906;8.376;2023-02-15T10:28:05;101795.22;;;8.74;74.12
19112;BME280;9688;51.906;8.376;2023-02-15T10:30:54;101792.38;;;8.89;73.41
19112;BME280;9688;51.906;8.376;2023-02-15T10:33:43;101778.19;;;9.01;73.30
19112;BME280;9688;51.906;8.376;2023-02-15T10:36:40;101781.63;;;9.06;73.52
19112;BME280;9688;51.906;8.376;2023-02-15T10:39:37;101785.88;;;9.18;72.91
19112;BME280;9688;51.906;8.376;2023-02-15T10:42:43;101793.53;;;9.33;71.91
19112;BME280;9688;51.906;8.376;2023-02-15T10:45:36;101778.47;;;9.43;71.67
19112;BME280;9688;51.906;8.376;2023-02-15T10:48:55;101774.81;;;9.53;72.18
19112;BME280;9688;51.906;8.376;2023-02-15T10:51:55;101774.59;;;9.66;71.52
19112;BME280;9688;51.906;8.376;2023-02-15T10:54:55;101778.78;;;9.79;71.46
19112;BME280;9688;51.906;8.376;2023-02-15T10:57:53;101777.59;;;9.97;69.90
19112;BME280;9688;51.906;8.376;2023-02-15T11:00:44;101780.03;;;10.09;70.16
19112;BME280;9688;51.906;8.376;2023-02-15T11:03:40;101774.56;;;10.20;69.36
19112;BME280;9688;51.906;8.376;2023-02-15T11:06:30;101769.13;;;10.27;69.63
19112;BME280;9688;51.906;8.376;2023-02-15T11:09:20;101765.50;;;10.33;69.94
19112;BME280;9688;51.906;8.376;2023-02-15T11:12:12;101762.66;;;10.45;68.19
19112;BME280;9688;51.906;8.376;2023-02-15T11:15:10;101771.13;;;10.61;67.77
19112;BME280;9688;51.906;8.376;2023-02-15T11:18:11;101769.97;;;10.76;67.68
19112;BME280;9688;51.906;8.376;2023-02-15T11:21:04;101769.75;;;10.87;67.54
19112;BME280;9688;51.906;8.376;2023-02-15T11:23:54;101772.19;;;10.94;66.76
19112;BME280;9688;51.906;8.376;2023-02-15T11:26:43;101768.59;;;11.00;66.25
19112;BME280;9688;51.906;8.376;2023-02-15T11:29:33;101770.16;;;11.07;66.35
19112;BME280;9688;51.906;8.376;2023-02-15T11:32:25;101762.03;;;11.16;65.76
19112;BME280;9688;51.906;8.376;2023-02-15T11:35:20;101748.59;;;11.26;65.73
19112;BME280;9688;51.906;8.376;2023-02-15T11:38:13;101755.28;;;11.41;66.45
19112;BME280;9688;51.906;8.376;2023-02-15T11:41:04;101756.69;;;11.57;66.07
19112;BME280;9688;51.906;8.376;2023-02-15T11:43:56;101753.78;;;11.68;64.87
19112;BME280;9688;51.906;8.376;2023-02-15T11:46:45;101748.31;;;11.74;65.08
19112;BME280;9688;51.906;8.376;2023-02-15T11:49:35;101743.00;;;11.75;64.23
19112;BME280;9688;51.906;8.376;2023-02-15T11:52:23;101741.91;;;11.82;64.43
19112;BME280;9688;51.906;8.376;2023-02-15T11:55:12;101736.28;;;11.96;63.98
19112;BME280;9688;51.906;8.376;2023-02-15T11:58:04;101737.69;;;12.11;63.25
19112;BME280;9688;51.906;8.376;2023-02-15T12:00:56;101733.81;;;12.23;62.99
19112;BME280;9688;51.906;8.376;2023-02-15T12:03:46;101722.91;;;12.34;63.19
19112;BME280;9688;51.906;8.376;2023-02-15T12:06:37;101712.16;;;12.38;62.67
19112;BME280;9688;51.906;8.376;2023-02-15T12:09:30;101711.91;;;12.47;62.63
19112;BME280;9688;51.906;8.376;2023-02-15T12:12:21;101715.31;;;12.53;62.47
19112;BME280;9688;51.906;8.376;2023-02-15T12:15:09;101717.78;;;12.59;62.22
19112;BME280;9688;51.906;8.376;2023-02-15T12:17:56;101715.94;;;12.61;61.72
19112;BME280;9688;51.906;8.376;2023-02-15T12:20:43;101708.38;;;12.77;62.03
19112;BME280;9688;51.906;8.376;2023-02-15T12:23:32;101706.97;;;12.94;61.23
19112;BME280;9688;51.906;8.376;2023-02-15T12:26:24;101702.09;;;13.09;60.45
19112;BME280;9688;51.906;8.376;2023-02-15T12:29:16;101691.03;;;13.23;60.34
19112;BME280;9688;51.906;8.376;2023-02-15T12:32:03;101691.53;;;13.35;60.01
19112;BME280;9688;51.906;8.376;2023-02-15T12:34:50;101682.59;;;13.38;60.05
19112;BME280;9688;51.906;8.376;2023-02-15T12:37:37;101677.09;;;13.44;59.94
19112;BME280;9688;51.906;8.376;2023-02-15T12:40:26;101676.94;;;13.49;59.65
19112;BME280;9688;51.906;8.376;2023-02-15T12:43:25;101663.59;;;13.50;59.38
19112;BME280;9688;51.906;8.376;2023-02-15T12:46:20;101664.50;;;13.49;59.50
19112;BME280;9688;51.906;8.376;2023-02-15T12:49:18;101666.19;;;13.52;59.59
19112;BME280;9688;51.906;8.376;2023-02-15T12:52:05;101667.63;;;13.62;59.61
19112;BME280;9688;51.906;8.376;2023-02-15T12:54:52;101661.19;;;13.69;59.29
19112;BME280;9688;51.906;8.376;2023-02-15T12:57:39;101660.78;;;13.80;58.92
19112;BME280;9688;51.906;8.376;2023-02-15T13:00:29;101654.41;;;13.86;58.87
19112;BME280;9688;51.906;8.376;2023-02-15T13:03:19;101650.69;;;13.91;58.25
19112;BME280;9688;51.906;8.376;2023-02-15T13:06:09;101647.91;;;13.94;58.39
19112;BME280;9688;51.906;8.376;2023-02-15T13:09:06;101649.84;;;13.89;58.36
19112;BME280;9688;51.906;8.376;2023-02-15T13:12:09;101651.47;;;13.93;58.43
19112;BME280;9688;51.906;8.376;2023-02-15T13:14:59;101653.16;;;13.96;58.30
19112;BME280;9688;51.906;8.376;2023-02-15T13:17:47;101646.81;;;14.00;58.28
19112;BME280;9688;51.906;8.376;2023-02-15T13:20:34;101653.81;;;14.02;58.13
19112;BME280;9688;51.906;8.376;2023-02-15T13:23:27;101650.94;;;14.09;57.92
19112;BME280;9688;51.906;8.376;2023-02-15T13:26:16;101650.56;;;14.18;57.54
19112;BME280;9688;51.906;8.376;2023-02-15T13:29:08;101644.13;;;14.25;57.47
19112;BME280;9688;51.906;8.376;2023-02-15T13:32:19;101643.94;;;14.29;57.12
19112;BME280;9688;51.906;8.376;2023-02-15T13:35:14;101629.66;;;14.32;57.51
19112;BME280;9688;51.906;8.376;2023-02-15T13:38:20;101620.41;;;14.42;57.05
19112;BME280;9688;51.906;8.376;2023-02-15T13:41:11;101615.78;;;14.47;57.28
19112;BME280;9688;51.906;8.376;2023-02-15T13:44:05;101620.84;;;14.55;57.04
19112;BME280;9688;51.906;8.376;2023-02-15T13:47:05;101616.31;;;14.57;56.63
19112;BME280;9688;51.906;8.376;2023-02-15T13:50:26;101607.34;;;14.60;57.07
19112;BME280;9688;51.906;8.376;2023-02-15T13:53:27;101602.09;;;14.58;56.84
19112;BME280;9688;51.906;8.376;2023-02-15T13:56:23;101611.19;;;14.53;56.80
19112;BME280;9688;51.906;8.376;2023-02-15T13:59:25;101603.97;;;14.55;56.73
19112;BME280;9688;51.906;8.376;2023-02-15T14:02:37;101597.63;;;14.59;57.04
19112;BME280;9688;51.906;8.376;2023-02-15T14:08:56;101578.06;;;14.60;56.71
19112;BME280;9688;51.906;8.376;2023-02-15T14:11:53;101586.03;;;14.60;56.35
19112;BME280;9688;51.906;8.376;2023-02-15T14:15:01;101577.88;;;14.64;56.32
19112;BME280;9688;51.906;8.376;2023-02-15T14:18:19;101576.81;;;14.68;56.06
19112;BME280;9688;51.906;8.376;2023-02-15T14:21:18;101578.31;;;14.76;55.90
19112;BME280;9688;51.906;8.376;2023-02-15T14:24:18;101577.50;;;14.73;55.71
19112;BME280;9688;51.906;8.376;2023-02-15T14:27:18;101577.59;;;14.72;55.71
19112;BME280;9688;51.906;8.376;2023-02-15T14:30:15;101579.56;;;14.67;55.42
19112;BME280;9688;51.906;8.376;2023-02-15T14:33:06;101574.28;;;14.65;55.88
19112;BME280;9688;51.906;8.376;2023-02-15T14:35:54;101573.50;;;14.63;55.46
19112;BME280;9688;51.906;8.376;2023-02-15T14:39:06;101579.72;;;14.62;55.62
19112;BME280;9688;51.906;8.376;2023-02-15T14:42:24;101574.28;;;14.65;55.33
19112;BME280;9688;51.906;8.376;2023-02-15T14:45:18;101569.09;;;14.62;55.70
19112;BME280;9688;51.906;8.376;2023-02-15T14:48:15;101575.28;;;14.63;55.41
19112;BME280;9688;51.906;8.376;2023-02-15T14:51:04;101569.16;;;14.61;55.56
19112;BME280;9688;51.906;8.376;2023-02-15T14:53:50;101571.88;;;14.59;55.22
19112;BME280;9688;51.906;8.376;2023-02-15T14:56:36;101565.75;;;14.57;55.43
19112;BME280;9688;51.906;8.376;2023-02-15T14:59:23;101560.38;;;14.59;55.22
19112;BME280;9688;51.906;8.376;2023-02-15T15:02:15;101563.97;;;14.58;55.46
19112;BME280;9688;51.906;8.376;2023-02-15T15:05:07;101555.31;;;14.53;55.62
19112;BME280;9688;51.906;8.376;2023-02-15T15:07:56;101552.03;;;14.44;55.63
19112;BME280;9688;51.906;8.376;2023-02-15T15:10:45;101556.66;;;14.39;56.03
19112;BME280;9688;51.906;8.376;2023-02-15T15:13:37;101553.19;;;14.37;56.02
19112;BME280;9688;51.906;8.376;2023-02-15T15:16:47;101551.41;;;14.38;55.87
19112;BME280;9688;51.906;8.376;2023-02-15T15:19:57;101557.78;;;14.34;56.20
19112;BME280;9688;51.906;8.376;2023-02-15T15:22:44;101547.97;;;14.36;56.04